Time;durP1;ratioP1;P1;durP2;ratioP2;P2;SDS_P1;SDS_P2;PMS_P1;PMS_P2;Temp;Humidity;BMP_temperature;BMP_pressure;BME280_temperature;BME280_humidity;BME280_pressure;Samples;Min_cycle;Max_cycle;Signal;HPM_P1;HPM_P2
2022/08/19 00:01:49;;;;;;;;;;;25.00;57.10;;;;;;5032334;28;20375;-61
2022/08/19 00:04:16;;;;;;;;;;;25.00;57.10;;;;;;5033182;28;19921;-62
2022/08/19 00:06:43;;;;;;;;;;;25.00;57.10;;;;;;5035579;28;20004;-61
2022/08/19 00:09:11;;;;;;;;;;;25.00;57.00;;;;;;5046605;28;19925;-61
2022/08/19 00:11:38;;;;;;;;;;;25.00;57.00;;;;;;5039604;28;19928;-62
2022/08/19 00:14:04;;;;;;;;;;;25.00;57.60;;;;;;5051882;28;19920;-61
2022/08/19 00:16:32;;;;;;;;;;;25.00;57.00;;;;;;5049402;28;19980;-61
2022/08/19 00:18:59;;;;;;;;;;;25.00;57.00;;;;;;5019237;28;19929;-61
2022/08/19 00:21:26;;;;;;;;;;;25.00;57.00;;;;;;5027544;28;19994;-61
2022/08/19 00:23:53;;;;;;;;;;;25.00;57.00;;;;;;5030546;28;20015;-61
2022/08/19 00:26:20;;;;;;;;;;;25.00;57.00;;;;;;5030160;28;19921;-61
2022/08/19 00:28:47;;;;;;;;;;;25.00;57.00;;;;;;5019950;28;19960;-61
2022/08/19 00:31:14;;;;;;;;;;;24.90;56.90;;;;;;5031654;28;20420;-63
2022/08/19 00:33:42;;;;;;;;;;;25.00;57.00;;;;;;5029319;28;19935;-61
2022/08/19 00:36:09;;;;;;;;;;;24.90;56.90;;;;;;5031153;28;19920;-61
2022/08/19 00:38:36;;;;;;;;;;;25.00;57.00;;;;;;5027627;28;19929;-61
2022/08/19 00:41:03;;;;;;;;;;;25.00;57.00;;;;;;5027730;28;19928;-61
2022/08/19 00:43:30;;;;;;;;;;;25.00;57.00;;;;;;5017361;28;19971;-61
2022/08/19 00:45:56;;;;;;;;;;;25.00;57.00;;;;;;5026849;28;20305;-60
2022/08/19 00:48:24;;;;;;;;;;;25.00;57.00;;;;;;5030667;28;19929;-61
2022/08/19 00:50:52;;;;;;;;;;;25.00;57.00;;;;;;5037041;28;19921;-61
2022/08/19 00:53:20;;;;;;;;;;;25.00;57.00;;;;;;5030521;28;19928;-61
2022/08/19 00:55:46;;;;;;;;;;;24.90;56.90;;;;;;5028524;28;19921;-60
2022/08/19 00:58:15;;;;;;;;;;;25.00;57.00;;;;;;5048507;28;19921;-61
2022/08/19 01:00:41;;;;;;;;;;;25.00;57.00;;;;;;5030380;28;19921;-61
2022/08/19 01:03:09;;;;;;;;;;;25.00;57.00;;;;;;5021796;28;19983;-61
2022/08/19 01:05:35;;;;;;;;;;;25.00;57.00;;;;;;5029022;28;20299;-61
2022/08/19 01:08:05;;;;;;;;;;;25.00;57.00;;;;;;5049393;28;19979;-60
2022/08/19 01:10:33;;;;;;;;;;;24.90;56.90;;;;;;5052253;28;20023;-61
2022/08/19 01:13:00;;;;;;;;;;;25.00;57.00;;;;;;5047826;28;19960;-61
2022/08/19 01:15:27;;;;;;;;;;;25.00;57.00;;;;;;5047630;28;19927;-61
2022/08/19 01:17:54;;;;;;;;;;;25.00;57.00;;;;;;5021508;28;20430;-61
2022/08/19 01:20:21;;;;;;;;;;;25.00;57.00;;;;;;5024173;28;19920;-61
2022/08/19 01:22:50;;;;;;;;;;;25.00;57.00;;;;;;5030044;28;19929;-61
2022/08/19 01:25:17;;;;;;;;;;;25.00;57.00;;;;;;5031386;28;19925;-61
2022/08/19 01:27:45;;;;;;;;;;;25.00;57.00;;;;;;5015835;28;20397;-61
2022/08/19 01:30:12;;;;;;;;;;;24.90;56.90;;;;;;4999555;28;19927;-60
2022/08/19 01:32:38;;;;;;;;;;;25.00;57.00;;;;;;5046142;28;19956;-61
2022/08/19 01:35:06;;;;;;;;;;;25.00;57.00;;;;;;5033442;28;19928;-61
2022/08/19 01:37:42;;;;;;;;;;;24.90;57.00;;;;;;5037264;28;19925;-61
2022/08/19 01:40:11;;;;;;;;;;;25.00;57.00;;;;;;5029244;28;19964;-61
2022/08/19 01:42:37;;;;;;;;;;;25.00;57.00;;;;;;5043635;28;19975;-62
2022/08/19 01:45:04;;;;;;;;;;;25.00;57.00;;;;;;5027027;28;20035;-61
2022/08/19 01:47:31;;;;;;;;;;;25.00;57.00;;;;;;5031067;28;19921;-60
2022/08/19 01:49:58;;;;;;;;;;;24.90;56.90;;;;;;5032887;28;20011;-61
2022/08/19 01:52:25;;;;;;;;;;;25.00;57.00;;;;;;5033018;28;19925;-62
2022/08/19 01:54:52;;;;;;;;;;;25.00;57.00;;;;;;5014463;28;20049;-61
2022/08/19 01:57:20;;;;;;;;;;;25.00;57.00;;;;;;5047408;28;19925;-61
2022/08/19 01:59:46;;;;;;;;;;;25.00;57.00;;;;;;5035201;28;19924;-61
2022/08/19 02:02:13;;;;;;;;;;;25.00;57.00;;;;;;5020973;28;19994;-61
2022/08/19 02:04:40;;;;;;;;;;;25.00;57.10;;;;;;5050257;28;19971;-61
2022/08/19 02:07:07;;;;;;;;;;;25.00;57.10;;;;;;5034568;28;19979;-60
2022/08/19 02:09:34;;;;;;;;;;;25.00;57.10;;;;;;5032012;28;19928;-60
2022/08/19 02:12:01;;;;;;;;;;;25.00;57.10;;;;;;5034843;28;19956;-61
2022/08/19 02:14:29;;;;;;;;;;;24.90;57.00;;;;;;5033745;28;19927;-60
2022/08/19 02:16:56;;;;;;;;;;;24.90;57.00;;;;;;5061930;28;19978;-60
2022/08/19 02:19:23;;;;;;;;;;;24.90;57.00;;;;;;5036607;28;19920;-61
2022/08/19 02:21:49;;;;;;;;;;;24.90;57.00;;;;;;5058679;28;19927;-60
2022/08/19 02:24:16;;;;;;;;;;;24.90;57.00;;;;;;5032418;28;19921;-60
2022/08/19 02:26:43;;;;;;;;;;;24.90;57.00;;;;;;5054538;28;20397;-60
2022/08/19 02:29:09;;;;;;;;;;;24.90;57.60;;;;;;5015501;28;19971;-60
2022/08/19 02:31:37;;;;;;;;;;;24.90;57.00;;;;;;5028835;28;20015;-60
2022/08/19 02:34:04;;;;;;;;;;;24.90;57.00;;;;;;5021880;28;20213;-60
2022/08/19 02:36:31;;;;;;;;;;;24.90;57.00;;;;;;5033940;28;19928;-60
2022/08/19 02:38:58;;;;;;;;;;;24.90;57.00;;;;;;5028191;28;20495;-60
2022/08/19 02:41:26;;;;;;;;;;;24.90;57.00;;;;;;5033486;28;19986;-61
2022/08/19 02:43:53;;;;;;;;;;;24.90;57.00;;;;;;5026837;28;19931;-60
2022/08/19 02:46:21;;;;;;;;;;;24.90;57.00;;;;;;5033138;28;19975;-60
2022/08/19 02:48:49;;;;;;;;;;;24.90;57.60;;;;;;5022022;28;19929;-61
2022/08/19 02:51:16;;;;;;;;;;;24.90;57.00;;;;;;5032881;28;19927;-60
2022/08/19 02:53:43;;;;;;;;;;;24.90;57.00;;;;;;5026994;28;19924;-60
2022/08/19 02:56:10;;;;;;;;;;;24.90;57.10;;;;;;5035813;28;19932;-60
2022/08/19 02:58:36;;;;;;;;;;;24.90;57.10;;;;;;5032175;28;20014;-61
2022/08/19 03:01:03;;;;;;;;;;;24.90;57.10;;;;;;5051772;28;19947;-60
2022/08/19 03:03:31;;;;;;;;;;;24.90;57.10;;;;;;5029903;28;19921;-61
2022/08/19 03:06:07;;;;;;;;;;;24.90;57.20;;;;;;5034111;28;19978;-61
2022/08/19 03:08:34;;;;;;;;;;;24.90;57.20;;;;;;5024152;28;20319;-60
2022/08/19 03:11:01;;;;;;;;;;;24.90;57.20;;;;;;5028890;28;19921;-60
2022/08/19 03:13:27;;;;;;;;;;;24.90;57.30;;;;;;5025625;28;19932;-60
2022/08/19 03:15:54;;;;;;;;;;;24.90;57.30;;;;;;5032518;28;19983;-60
2022/08/19 03:18:21;;;;;;;;;;;24.90;57.30;;;;;;5032785;28;19920;-61
2022/08/19 03:20:48;;;;;;;;;;;24.90;57.30;;;;;;5029635;28;19925;-61
2022/08/19 03:23:16;;;;;;;;;;;24.80;57.20;;;;;;5015139;28;19933;-61
2022/08/19 03:25:43;;;;;;;;;;;24.90;57.30;;;;;;5015774;28;19978;-61
2022/08/19 03:28:11;;;;;;;;;;;24.90;57.30;;;;;;5029363;28;19921;-60
2022/08/19 03:30:39;;;;;;;;;;;24.90;57.30;;;;;;5032576;28;19974;-61
2022/08/19 03:33:06;;;;;;;;;;;24.80;57.20;;;;;;5046583;28;19928;-61
2022/08/19 03:35:32;;;;;;;;;;;24.90;57.30;;;;;;5045564;28;19940;-60
2022/08/19 03:37:59;;;;;;;;;;;24.80;57.20;;;;;;5032933;28;19920;-60
2022/08/19 03:40:29;;;;;;;;;;;24.80;57.20;;;;;;5029516;28;19921;-60
2022/08/19 03:42:56;;;;;;;;;;;24.80;57.20;;;;;;5028322;28;19921;-60
2022/08/19 03:45:23;;;;;;;;;;;24.80;57.20;;;;;;5029320;28;19948;-61
2022/08/19 03:47:50;;;;;;;;;;;24.80;57.20;;;;;;5032384;28;19966;-60
2022/08/19 03:50:16;;;;;;;;;;;24.90;57.30;;;;;;5032013;28;20305;-60
2022/08/19 03:52:43;;;;;;;;;;;24.80;57.20;;;;;;5020938;28;19925;-61
2022/08/19 03:55:10;;;;;;;;;;;24.80;57.20;;;;;;5032754;28;19981;-60
2022/08/19 03:57:38;;;;;;;;;;;24.80;57.20;;;;;;5046941;28;19967;-61
2022/08/19 04:00:06;;;;;;;;;;;24.80;57.20;;;;;;5046599;28;19972;-61
2022/08/19 04:02:33;;;;;;;;;;;24.80;57.20;;;;;;5031052;28;19928;-60
2022/08/19 04:04:59;;;;;;;;;;;24.80;57.20;;;;;;5024486;28;19925;-60
2022/08/19 04:07:26;;;;;;;;;;;24.80;57.20;;;;;;5050536;28;19921;-60
2022/08/19 04:09:53;;;;;;;;;;;24.80;57.20;;;;;;5013318;28;19975;-61
2022/08/19 04:12:20;;;;;;;;;;;24.80;57.20;;;;;;5046656;28;19933;-60
2022/08/19 04:14:48;;;;;;;;;;;24.80;57.20;;;;;;5031935;28;19925;-61
2022/08/19 04:17:15;;;;;;;;;;;24.80;57.30;;;;;;5040126;28;19927;-60
2022/08/19 04:19:42;;;;;;;;;;;24.80;57.20;;;;;;5046407;28;19978;-60
2022/08/19 04:22:11;;;;;;;;;;;24.80;57.30;;;;;;5035481;28;19921;-60
2022/08/19 04:24:37;;;;;;;;;;;24.80;57.20;;;;;;5028988;28;19928;-60
2022/08/19 04:27:05;;;;;;;;;;;24.80;57.30;;;;;;5048629;28;19925;-60
2022/08/19 04:29:31;;;;;;;;;;;24.80;57.30;;;;;;5031486;28;20033;-61
2022/08/19 04:31:59;;;;;;;;;;;24.80;57.30;;;;;;5046848;28;20535;-60
2022/08/19 04:34:27;;;;;;;;;;;24.80;57.30;;;;;;5026286;28;19921;-61
2022/08/19 04:36:54;;;;;;;;;;;24.80;57.30;;;;;;5019629;28;19983;-60
2022/08/19 04:39:21;;;;;;;;;;;24.70;57.20;;;;;;5048784;28;19956;-60
2022/08/19 04:44:32;;;;;;;;;;;24.70;57.20;;;;;;5031455;28;19920;-60
2022/08/19 04:47:00;;;;;;;;;;;24.70;57.20;;;;;;5032345;28;19984;-60
2022/08/19 04:49:27;;;;;;;;;;;24.80;57.30;;;;;;5035200;28;20011;-60
2022/08/19 04:51:54;;;;;;;;;;;24.70;57.30;;;;;;5056813;28;19963;-61
2022/08/19 04:54:22;;;;;;;;;;;24.70;57.20;;;;;;5040334;28;20010;-60
2022/08/19 04:56:50;;;;;;;;;;;24.80;57.30;;;;;;5037569;28;20532;-60
2022/08/19 04:59:18;;;;;;;;;;;24.70;57.20;;;;;;5042146;28;19920;-61
2022/08/19 05:01:49;;;;;;;;;;;24.70;57.30;;;;;;5054150;28;19920;-60
2022/08/19 05:04:18;;;;;;;;;;;24.70;57.20;;;;;;5043002;28;19937;-60
2022/08/19 05:06:45;;;;;;;;;;;24.70;57.20;;;;;;5040173;28;19920;-61
2022/08/19 05:09:12;;;;;;;;;;;24.70;57.30;;;;;;5039173;28;19920;-60
2022/08/19 05:11:39;;;;;;;;;;;24.70;57.30;;;;;;5037808;28;19921;-61
2022/08/19 05:14:06;;;;;;;;;;;24.70;57.30;;;;;;5042021;28;19921;-61
2022/08/19 05:16:32;;;;;;;;;;;24.70;57.30;;;;;;5037637;28;20023;-61
2022/08/19 05:24:29;;;;;;;;;;;24.70;57.30;;;;;;5060644;28;19981;-60
2022/08/19 05:26:57;;;;;;;;;;;24.70;57.40;;;;;;5058167;28;19929;-61
2022/08/19 05:29:24;;;;;;;;;;;24.70;57.40;;;;;;5030009;28;20609;-61
2022/08/19 05:31:51;;;;;;;;;;;24.70;57.40;;;;;;5036971;28;20337;-60
2022/08/19 05:34:18;;;;;;;;;;;24.70;57.40;;;;;;5040484;28;19952;-61
2022/08/19 05:36:47;;;;;;;;;;;24.70;57.40;;;;;;5030319;28;19937;-61
2022/08/19 05:39:15;;;;;;;;;;;24.70;57.40;;;;;;5054818;28;19927;-60
2022/08/19 05:41:42;;;;;;;;;;;24.70;57.40;;;;;;5034258;28;19985;-61
2022/08/19 05:44:09;;;;;;;;;;;24.70;57.40;;;;;;5035551;28;19921;-61
2022/08/19 05:46:36;;;;;;;;;;;24.70;57.50;;;;;;5053383;28;19921;-60
2022/08/19 05:49:04;;;;;;;;;;;24.70;57.50;;;;;;5028666;28;19925;-60
2022/08/19 05:51:31;;;;;;;;;;;24.70;57.50;;;;;;5033522;28;19955;-60
2022/08/19 05:53:59;;;;;;;;;;;24.70;57.50;;;;;;5043051;28;19920;-61
2022/08/19 05:56:26;;;;;;;;;;;24.70;57.50;;;;;;5033970;28;19921;-61
2022/08/19 05:58:53;;;;;;;;;;;24.70;57.50;;;;;;5071850;28;19920;-61
2022/08/19 06:01:21;;;;;;;;;;;24.70;57.50;;;;;;5055450;28;19970;-61
2022/08/19 06:03:48;;;;;;;;;;;24.70;57.50;;;;;;5032532;28;19929;-61
2022/08/19 06:06:15;;;;;;;;;;;24.70;57.50;;;;;;5033641;28;19928;-60
2022/08/19 06:08:42;;;;;;;;;;;24.70;57.50;;;;;;5032677;28;19927;-61
2022/08/19 06:11:15;;;;;;;;;;;24.70;57.50;;;;;;5042920;28;19951;-61
2022/08/19 06:13:41;;;;;;;;;;;24.70;57.60;;;;;;5031718;28;19932;-61
2022/08/19 06:16:08;;;;;;;;;;;24.70;57.60;;;;;;5037580;28;20489;-61
2022/08/19 06:18:35;;;;;;;;;;;24.70;57.60;;;;;;5023642;28;19931;-61
2022/08/19 06:21:04;;;;;;;;;;;24.70;57.60;;;;;;5035070;28;19925;-61
2022/08/19 06:23:37;;;;;;;;;;;24.70;57.60;;;;;;5020814;28;19932;-62
2022/08/19 06:26:04;;;;;;;;;;;24.70;57.60;;;;;;5016056;28;20374;-62
2022/08/19 06:28:33;;;;;;;;;;;24.70;57.60;;;;;;5044386;28;19975;-62
2022/08/19 06:31:00;;;;;;;;;;;24.70;57.70;;;;;;5031168;28;19927;-61
2022/08/19 06:33:26;;;;;;;;;;;24.70;57.60;;;;;;5016389;28;19927;-61
2022/08/19 06:35:53;;;;;;;;;;;24.70;57.60;;;;;;5028917;28;19928;-61
2022/08/19 06:38:23;;;;;;;;;;;24.70;57.70;;;;;;5046878;28;19999;-60
2022/08/19 06:40:49;;;;;;;;;;;24.70;57.70;;;;;;5036750;28;20019;-61
2022/08/19 06:43:16;;;;;;;;;;;24.70;57.70;;;;;;5027892;28;19925;-61
2022/08/19 06:45:44;;;;;;;;;;;24.70;57.70;;;;;;5021036;28;19947;-62
2022/08/19 06:48:11;;;;;;;;;;;24.70;57.70;;;;;;5032562;28;20009;-62
2022/08/19 06:50:38;;;;;;;;;;;24.70;57.70;;;;;;5033709;28;19979;-61
2022/08/19 06:53:05;;;;;;;;;;;24.70;57.70;;;;;;5034372;28;20015;-62
2022/08/19 06:55:32;;;;;;;;;;;24.70;57.70;;;;;;5021112;28;19921;-61
2022/08/19 06:57:59;;;;;;;;;;;24.70;57.70;;;;;;5034224;28;19925;-62
2022/08/19 07:00:25;;;;;;;;;;;24.70;57.70;;;;;;5044234;28;19967;-62
2022/08/19 07:02:54;;;;;;;;;;;24.70;57.70;;;;;;5025038;28;19932;-61
2022/08/19 07:05:20;;;;;;;;;;;24.70;57.70;;;;;;5027739;28;19921;-61
2022/08/19 07:07:47;;;;;;;;;;;24.70;57.70;;;;;;5033588;28;19987;-62
2022/08/19 07:10:14;;;;;;;;;;;24.70;57.70;;;;;;5025107;28;19925;-61
2022/08/19 07:12:41;;;;;;;;;;;24.70;57.70;;;;;;5032746;28;19994;-61
2022/08/19 07:15:09;;;;;;;;;;;24.70;57.60;;;;;;5033057;28;19924;-61
2022/08/19 07:17:38;;;;;;;;;;;24.70;57.60;;;;;;5030196;28;19932;-61
2022/08/19 07:20:07;;;;;;;;;;;24.70;57.60;;;;;;5051423;28;19921;-62
2022/08/19 07:22:34;;;;;;;;;;;24.70;57.60;;;;;;5031796;28;19921;-61
2022/08/19 07:25:02;;;;;;;;;;;24.70;57.60;;;;;;5034735;28;19978;-61
2022/08/19 07:27:29;;;;;;;;;;;24.60;57.50;;;;;;5043392;28;19925;-61
2022/08/19 07:29:56;;;;;;;;;;;24.70;57.60;;;;;;5036307;28;19928;-61
2022/08/19 07:32:23;;;;;;;;;;;24.70;57.60;;;;;;5054777;28;19990;-62
2022/08/19 07:34:50;;;;;;;;;;;24.70;57.60;;;;;;5027031;28;19976;-61
2022/08/19 07:37:18;;;;;;;;;;;24.60;57.40;;;;;;5038762;28;19928;-61
2022/08/19 07:39:44;;;;;;;;;;;24.70;57.50;;;;;;5049257;28;19948;-62
2022/08/19 07:42:11;;;;;;;;;;;24.60;57.40;;;;;;5050153;28;19994;-61
2022/08/19 07:44:38;;;;;;;;;;;24.70;57.50;;;;;;5031030;28;20015;-61
2022/08/19 07:47:05;;;;;;;;;;;24.70;57.50;;;;;;5024110;28;20021;-61
2022/08/19 07:49:31;;;;;;;;;;;24.70;57.50;;;;;;5021335;28;19929;-61
2022/08/19 07:51:59;;;;;;;;;;;24.70;57.50;;;;;;5026607;28;19932;-61
2022/08/19 07:54:27;;;;;;;;;;;24.70;57.50;;;;;;5037706;28;19953;-62
2022/08/19 07:56:54;;;;;;;;;;;24.60;57.90;;;;;;5033296;28;20019;-61
2022/08/19 07:59:21;;;;;;;;;;;24.70;57.50;;;;;;5033206;28;19966;-62
2022/08/19 08:01:49;;;;;;;;;;;24.70;57.50;;;;;;5029972;28;19990;-61
2022/08/19 08:09:46;;;;;;;;;;;24.70;57.40;;;;;;5033125;28;20388;-61
2022/08/19 08:12:14;;;;;;;;;;;24.70;57.40;;;;;;5030585;28;20018;-61
2022/08/19 08:14:41;;;;;;;;;;;24.70;57.40;;;;;;5047526;28;19921;-61
2022/08/19 08:17:08;;;;;;;;;;;24.70;57.40;;;;;;5006831;28;19933;-61
2022/08/19 08:19:35;;;;;;;;;;;24.70;57.40;;;;;;5032750;28;19921;-61
2022/08/19 08:22:02;;;;;;;;;;;24.70;57.40;;;;;;5044172;28;19925;-61
2022/08/19 08:24:30;;;;;;;;;;;24.70;57.40;;;;;;5027260;28;19925;-61
2022/08/19 08:26:58;;;;;;;;;;;24.70;57.30;;;;;;5027073;28;19975;-61
2022/08/19 08:29:25;;;;;;;;;;;24.70;57.30;;;;;;5025206;28;19975;-61
2022/08/19 08:31:53;;;;;;;;;;;24.70;57.30;;;;;;5022471;28;19920;-62
2022/08/19 08:34:20;;;;;;;;;;;24.70;57.30;;;;;;5023199;28;19988;-61
2022/08/19 08:36:47;;;;;;;;;;;24.70;57.30;;;;;;5030159;28;20007;-62
2022/08/19 08:39:14;;;;;;;;;;;24.70;57.30;;;;;;5046074;28;19974;-62
2022/08/19 08:41:43;;;;;;;;;;;24.70;57.80;;;;;;5028541;28;19921;-61
2022/08/19 08:44:13;;;;;;;;;;;24.70;57.20;;;;;;5042093;28;20289;-61
2022/08/19 08:46:41;;;;;;;;;;;24.70;57.20;;;;;;5018079;28;19935;-62
2022/08/19 08:49:11;;;;;;;;;;;24.70;57.30;;;;;;5025065;28;19935;-60
2022/08/19 08:51:39;;;;;;;;;;;24.70;57.20;;;;;;5029433;28;19970;-62
2022/08/19 08:54:07;;;;;;;;;;;24.70;57.20;;;;;;5029094;28;19960;-61
2022/08/19 08:56:33;;;;;;;;;;;24.70;57.20;;;;;;5027174;28;19924;-61
2022/08/19 08:59:01;;;;;;;;;;;24.70;57.20;;;;;;5046498;28;19933;-62
2022/08/19 09:01:29;;;;;;;;;;;24.70;57.20;;;;;;5032954;28;19924;-61
2022/08/19 09:03:56;;;;;;;;;;;24.70;57.20;;;;;;5037821;28;19955;-61
2022/08/19 09:06:25;;;;;;;;;;;24.70;57.20;;;;;;5030324;28;19995;-62
2022/08/19 09:09:03;;;;;;;;;;;24.70;57.20;;;;;;5025298;28;19936;-61
2022/08/19 09:11:33;;;;;;;;;;;24.70;57.20;;;;;;5034452;28;19972;-61
2022/08/19 09:14:03;;;;;;;;;;;24.70;57.20;;;;;;5018281;28;19932;-62
2022/08/19 09:16:32;;;;;;;;;;;24.70;57.20;;;;;;5037413;28;19992;-62
2022/08/19 09:18:59;;;;;;;;;;;24.70;57.20;;;;;;5028146;28;19924;-62
2022/08/19 09:21:27;;;;;;;;;;;24.70;57.30;;;;;;5032472;28;19990;-63
2022/08/19 09:23:54;;;;;;;;;;;24.70;57.30;;;;;;5029706;28;19920;-68
2022/08/19 09:26:21;;;;;;;;;;;24.70;57.30;;;;;;5029011;28;19983;-68
2022/08/19 09:28:49;;;;;;;;;;;24.70;57.30;;;;;;5026021;28;19925;-67
2022/08/19 09:31:17;;;;;;;;;;;24.70;57.30;;;;;;5021572;28;20063;-62
2022/08/19 09:33:45;;;;;;;;;;;24.70;57.30;;;;;;5017346;28;19921;-63
2022/08/19 09:36:12;;;;;;;;;;;24.70;57.40;;;;;;5016970;28;19929;-62
2022/08/19 09:38:40;;;;;;;;;;;24.70;57.40;;;;;;5032164;28;20027;-62
2022/08/19 09:41:07;;;;;;;;;;;24.70;57.40;;;;;;5019202;28;19927;-63
2022/08/19 09:43:36;;;;;;;;;;;24.70;57.40;;;;;;5012710;28;19925;-64
2022/08/19 09:46:02;;;;;;;;;;;24.70;57.40;;;;;;5003576;28;19921;-63
2022/08/19 09:48:29;;;;;;;;;;;24.70;57.40;;;;;;5018600;28;20103;-63
2022/08/19 09:51:02;;;;;;;;;;;24.70;57.50;;;;;;5028883;28;19921;-61
2022/08/19 09:53:29;;;;;;;;;;;24.70;57.50;;;;;;5009138;28;19925;-63
2022/08/19 09:55:55;;;;;;;;;;;24.70;57.50;;;;;;5025002;28;19955;-62
2022/08/19 09:58:27;;;;;;;;;;;24.70;57.60;;;;;;5009652;28;19932;-62
2022/08/19 10:00:54;;;;;;;;;;;24.70;57.60;;;;;;5027293;28;20260;-62
2022/08/19 10:03:21;;;;;;;;;;;24.70;57.60;;;;;;5011949;28;19959;-63
2022/08/19 10:05:51;;;;;;;;;;;24.70;57.70;;;;;;5028726;28;19925;-63
2022/08/19 10:08:20;;;;;;;;;;;24.70;57.70;;;;;;5013079;28;20363;-62
2022/08/19 10:10:47;;;;;;;;;;;24.70;57.70;;;;;;5018843;28;19925;-62
2022/08/19 10:13:14;;;;;;;;;;;24.60;57.60;;;;;;5033840;28;19928;-63
2022/08/19 10:15:41;;;;;;;;;;;24.70;57.70;;;;;;5056633;28;20370;-62
2022/08/19 10:18:08;;;;;;;;;;;24.70;57.70;;;;;;5053741;28;19967;-62
2022/08/19 10:20:35;;;;;;;;;;;24.70;57.70;;;;;;5035927;28;20366;-62
2022/08/19 10:23:02;;;;;;;;;;;24.70;57.70;;;;;;5052087;28;19931;-62
2022/08/19 10:25:33;;;;;;;;;;;24.60;57.70;;;;;;5040827;28;19932;-62
2022/08/19 10:28:00;;;;;;;;;;;24.60;57.70;;;;;;5015107;28;19956;-61
2022/08/19 10:30:27;;;;;;;;;;;24.70;57.80;;;;;;5029146;28;19928;-62
2022/08/19 10:32:54;;;;;;;;;;;24.70;57.80;;;;;;5026467;28;19948;-61
2022/08/19 10:35:21;;;;;;;;;;;24.70;57.90;;;;;;5020948;28;19998;-61
2022/08/19 10:37:47;;;;;;;;;;;24.70;57.90;;;;;;5014891;28;19925;-62
2022/08/19 10:40:14;;;;;;;;;;;24.70;57.90;;;;;;5034790;28;20378;-62
2022/08/19 10:42:43;;;;;;;;;;;24.70;58.00;;;;;;5032466;28;19921;-63
2022/08/19 10:45:10;;;;;;;;;;;24.70;58.00;;;;;;5015018;28;19971;-62
2022/08/19 10:47:37;;;;;;;;;;;24.70;58.00;;;;;;5031990;28;20363;-62
2022/08/19 10:52:49;;;;;;;;;;;24.70;58.10;;;;;;5031991;28;19925;-61
2022/08/19 10:58:01;;;;;;;;;;;24.60;58.10;;;;;;5031210;28;19924;-62
2022/08/19 11:00:28;;;;;;;;;;;24.70;58.80;;;;;;5030155;28;19928;-62
2022/08/19 11:02:55;;;;;;;;;;;24.70;58.40;;;;;;5051807;28;19984;-61
2022/08/19 11:05:22;;;;;;;;;;;24.70;58.60;;;;;;5040470;28;19929;-62
2022/08/19 11:07:50;;;;;;;;;;;24.60;58.60;;;;;;5028349;28;19948;-62
2022/08/19 11:10:18;;;;;;;;;;;24.60;58.80;;;;;;5027478;28;20373;-62
2022/08/19 11:12:46;;;;;;;;;;;24.60;58.90;;;;;;5052948;28;19924;-63
2022/08/19 11:15:14;;;;;;;;;;;24.60;59.00;;;;;;5043812;28;20450;-62
2022/08/19 11:17:42;;;;;;;;;;;24.60;59.10;;;;;;5033468;28;19947;-61
2022/08/19 11:20:09;;;;;;;;;;;24.60;59.20;;;;;;5045318;28;19929;-62
2022/08/19 11:22:37;;;;;;;;;;;24.50;59.20;;;;;;5053309;28;19967;-62
2022/08/19 11:25:05;;;;;;;;;;;24.50;59.30;;;;;;5048441;28;19921;-62
2022/08/19 11:27:31;;;;;;;;;;;24.50;59.40;;;;;;5032883;28;19971;-61
2022/08/19 11:29:58;;;;;;;;;;;24.50;59.50;;;;;;5033507;28;19921;-61
2022/08/19 11:32:27;;;;;;;;;;;24.50;59.60;;;;;;5053818;28;19928;-62
2022/08/19 11:34:54;;;;;;;;;;;24.40;59.60;;;;;;5022090;28;19921;-62
2022/08/19 11:37:20;;;;;;;;;;;24.40;59.70;;;;;;5033771;28;19925;-63
2022/08/19 11:39:47;;;;;;;;;;;24.40;59.70;;;;;;5034939;28;19932;-63
2022/08/19 11:44:58;;;;;;;;;;;24.40;59.90;;;;;;5037816;28;20148;-62
2022/08/19 11:47:26;;;;;;;;;;;24.40;59.90;;;;;;5034168;28;19975;-62
2022/08/19 11:49:54;;;;;;;;;;;24.40;59.90;;;;;;5037256;28;19920;-62
2022/08/19 11:52:20;;;;;;;;;;;24.40;60.00;;;;;;5018568;28;20404;-64
2022/08/19 11:54:47;;;;;;;;;;;24.30;59.90;;;;;;5017477;28;20330;-64
2022/08/19 11:57:16;;;;;;;;;;;24.30;60.00;;;;;;5023447;28;19921;-63
2022/08/19 11:59:43;;;;;;;;;;;24.30;60.30;;;;;;5034138;28;19978;-65
2022/08/19 12:02:10;;;;;;;;;;;24.30;60.30;;;;;;5013595;28;19945;-62
2022/08/19 12:04:38;;;;;;;;;;;24.30;60.40;;;;;;5016606;28;19968;-62
2022/08/19 12:07:06;;;;;;;;;;;24.30;60.30;;;;;;5028702;28;19932;-60
2022/08/19 12:09:34;;;;;;;;;;;24.30;60.20;;;;;;5015279;28;19921;-61
2022/08/19 12:12:01;;;;;;;;;;;24.30;60.10;;;;;;5037831;28;19925;-60
2022/08/19 12:14:30;;;;;;;;;;;24.30;60.00;;;;;;5018312;28;19920;-61
2022/08/19 12:16:57;;;;;;;;;;;24.30;60.00;;;;;;5022183;28;19936;-60
2022/08/19 12:19:24;;;;;;;;;;;24.30;59.90;;;;;;5041318;28;19928;-61
2022/08/19 12:21:55;;;;;;;;;;;24.30;59.90;;;;;;5029466;28;19933;-60
2022/08/19 12:24:23;;;;;;;;;;;24.30;59.80;;;;;;5047025;28;20429;-60
2022/08/19 12:26:49;;;;;;;;;;;24.40;59.90;;;;;;5055398;28;19929;-60
2022/08/19 12:29:16;;;;;;;;;;;24.30;59.70;;;;;;5030131;28;19951;-60
2022/08/19 12:31:43;;;;;;;;;;;24.40;59.80;;;;;;5046669;28;19921;-61
2022/08/19 12:34:10;;;;;;;;;;;24.40;59.70;;;;;;5030855;28;19952;-60
2022/08/19 12:36:37;;;;;;;;;;;24.40;59.70;;;;;;5028876;28;19925;-61
2022/08/19 12:39:06;;;;;;;;;;;24.40;59.60;;;;;;5025539;28;19920;-60
2022/08/19 12:41:33;;;;;;;;;;;24.50;59.90;;;;;;5031972;28;19924;-60
2022/08/19 12:44:00;;;;;;;;;;;24.50;59.80;;;;;;5026683;28;19936;-62
2022/08/19 12:46:27;;;;;;;;;;;24.50;59.70;;;;;;5021980;28;20018;-61
2022/08/19 12:48:54;;;;;;;;;;;24.50;59.70;;;;;;5024055;28;19929;-60
2022/08/19 12:51:21;;;;;;;;;;;24.50;59.60;;;;;;5031282;28;19975;-60
2022/08/19 12:53:49;;;;;;;;;;;24.50;59.60;;;;;;5021108;28;19965;-60
2022/08/19 12:56:18;;;;;;;;;;;24.50;59.60;;;;;;5022626;28;19955;-61
2022/08/19 12:58:45;;;;;;;;;;;24.50;59.60;;;;;;5045843;28;19925;-60
2022/08/19 13:01:12;;;;;;;;;;;24.50;59.50;;;;;;5028785;28;19979;-60
2022/08/19 13:03:39;;;;;;;;;;;24.50;59.50;;;;;;5047822;28;19967;-62
2022/08/19 13:06:07;;;;;;;;;;;24.50;58.90;;;;;;5025944;28;19921;-61
2022/08/19 13:08:33;;;;;;;;;;;24.50;59.40;;;;;;5043475;28;19932;-61
2022/08/19 13:11:07;;;;;;;;;;;24.60;59.40;;;;;;5047299;28;19974;-60
2022/08/19 13:13:35;;;;;;;;;;;24.60;59.40;;;;;;5036837;28;19971;-61
2022/08/19 13:16:03;;;;;;;;;;;24.60;59.50;;;;;;5029668;28;19924;-61
2022/08/19 13:18:29;;;;;;;;;;;24.60;59.50;;;;;;5049789;28;19921;-60
2022/08/19 13:20:57;;;;;;;;;;;24.60;59.50;;;;;;5030290;28;20282;-59
2022/08/19 13:23:25;;;;;;;;;;;24.60;59.40;;;;;;5029568;28;19971;-60
2022/08/19 13:25:58;;;;;;;;;;;24.60;59.40;;;;;;5024285;28;19947;-60
2022/08/19 13:28:25;;;;;;;;;;;24.60;59.40;;;;;;5018795;28;19932;-62
2022/08/19 13:33:37;;;;;;;;;;;24.60;59.40;;;;;;5040276;28;19920;-61
2022/08/19 13:36:07;;;;;;;;;;;24.60;59.40;;;;;;5027341;28;19929;-61
2022/08/19 13:38:34;;;;;;;;;;;24.60;59.40;;;;;;5032773;28;20377;-61
2022/08/19 13:41:04;;;;;;;;;;;24.60;59.40;;;;;;5031307;28;20020;-61
2022/08/19 13:43:31;;;;;;;;;;;24.60;59.30;;;;;;5025759;28;20002;-61
2022/08/19 13:45:59;;;;;;;;;;;24.60;59.30;;;;;;5044308;28;19925;-60
2022/08/19 13:48:27;;;;;;;;;;;24.60;59.30;;;;;;5027278;28;19963;-60
2022/08/19 13:50:54;;;;;;;;;;;24.60;59.30;;;;;;5030593;28;19920;-60
2022/08/19 13:53:20;;;;;;;;;;;24.60;59.30;;;;;;5035592;28;19925;-60
2022/08/19 13:55:47;;;;;;;;;;;24.70;59.40;;;;;;5045270;28;20410;-61
2022/08/19 13:58:14;;;;;;;;;;;24.70;59.40;;;;;;5053206;28;20328;-60
2022/08/19 14:00:41;;;;;;;;;;;24.70;59.40;;;;;;5030361;28;19921;-60
2022/08/19 14:03:09;;;;;;;;;;;24.70;59.30;;;;;;5025265;28;19925;-61
2022/08/19 14:05:36;;;;;;;;;;;24.70;59.30;;;;;;5025750;28;20468;-61
2022/08/19 14:08:03;;;;;;;;;;;24.70;59.30;;;;;;5023850;28;19975;-60
2022/08/19 14:10:31;;;;;;;;;;;24.70;59.30;;;;;;5050367;28;19974;-60
2022/08/19 14:12:58;;;;;;;;;;;24.70;59.30;;;;;;5022236;28;19928;-60
2022/08/19 14:15:25;;;;;;;;;;;24.70;59.30;;;;;;5016990;28;19925;-60
2022/08/19 14:17:51;;;;;;;;;;;24.70;59.30;;;;;;5016726;28;19972;-61
2022/08/19 14:20:20;;;;;;;;;;;24.70;59.30;;;;;;5034160;28;19921;-62
2022/08/19 14:22:47;;;;;;;;;;;24.80;59.40;;;;;;5022841;28;19972;-61
2022/08/19 14:25:15;;;;;;;;;;;24.70;59.50;;;;;;5020321;28;20331;-61
2022/08/19 14:27:42;;;;;;;;;;;24.70;59.60;;;;;;5021137;28;19921;-61
2022/08/19 14:30:09;;;;;;;;;;;24.70;59.50;;;;;;5014929;28;19979;-64
2022/08/19 14:32:36;;;;;;;;;;;24.70;59.60;;;;;;5020286;28;20366;-65
2022/08/19 14:35:02;;;;;;;;;;;24.70;59.60;;;;;;5032546;28;19967;-63
2022/08/19 14:37:30;;;;;;;;;;;24.70;59.60;;;;;;5050826;28;19920;-64
2022/08/19 14:39:57;;;;;;;;;;;24.70;59.60;;;;;;5052750;28;19921;-62
2022/08/19 14:42:24;;;;;;;;;;;24.70;59.60;;;;;;5019263;28;19925;-63